Time;durP1;ratioP1;P1;durP2;ratioP2;P2;SDS_P1;SDS_P2;PMS_P1;PMS_P2;Temp;Humidity;BMP_temperature;BMP_pressure;BME280_temperature;BME280_humidity;BME280_pressure;Samples;Min_cycle;Max_cycle;Signal;HPM_P1;HPM_P2
2023/12/22 00:00:01;;;;;;;8.70;2.30;;;;;;;10.50;49.41;99297.09;680967;29;1430;-93
2023/12/22 00:00:21;;;;;;;9.30;2.15;;;;;;;10.46;49.74;99295.31;685828;28;1227;-93
2023/12/22 00:00:42;;;;;;;7.15;1.90;;;;;;;10.57;49.54;99308.41;681020;29;1280;-93
2023/12/22 00:01:03;;;;;;;4.75;2.10;;;;;;;10.32;49.38;99285.69;680153;29;1205;-92
2023/12/22 00:01:24;;;;;;;4.07;2.20;;;;;;;10.50;49.45;99294.50;683374;28;1266;-93
2023/12/22 00:01:45;;;;;;;4.00;2.20;;;;;;;10.46;49.46;99308.38;683330;28;1261;-93
2023/12/22 00:02:05;;;;;;;2.93;1.90;;;;;;;10.32;49.84;99264.84;686258;28;1249;-93
2023/12/22 00:02:28;;;;;;;4.30;1.83;;;;;;;10.43;49.53;99295.31;680912;29;1241;-93
2023/12/22 00:02:49;;;;;;;3.80;1.60;;;;;;;10.47;49.65;99292.75;678031;29;1301;-93
2023/12/22 00:03:09;;;;;;;6.07;1.70;;;;;;;10.49;49.56;99291.00;683310;29;1253;-93
2023/12/22 00:03:30;;;;;;;5.00;1.70;;;;;;;10.48;49.85;99290.97;679472;29;1154;-94
2023/12/22 00:03:51;;;;;;;5.43;1.92;;;;;;;10.46;49.55;99295.31;681814;29;1290;-94
2023/12/22 00:04:12;;;;;;;5.80;2.20;;;;;;;10.41;49.48;99293.59;685741;28;1922;-93
2023/12/22 00:04:33;;;;;;;6.20;2.05;;;;;;;10.44;49.72;99297.91;684542;28;1258;-94
2023/12/22 00:04:54;;;;;;;7.90;2.10;;;;;;;10.42;49.50;99294.44;683494;29;1218;-94
2023/12/22 00:05:15;;;;;;;7.80;2.00;;;;;;;10.40;49.73;99302.25;682616;29;1224;-94
2023/12/22 00:05:35;;;;;;;6.28;1.90;;;;;;;10.33;49.30;99305.69;685932;28;1368;-94
2023/12/22 00:05:56;;;;;;;5.07;2.00;;;;;;;10.26;49.89;99289.16;686121;28;1175;-95
2023/12/22 00:06:17;;;;;;;4.77;1.87;;;;;;;10.31;49.73;99306.56;682589;28;1393;-94
2023/12/22 00:06:40;;;;;;;4.80;2.00;;;;;;;10.30;49.92;99291.78;683155;29;1218;-94
2023/12/22 00:07:01;;;;;;;4.70;1.92;;;;;;;10.35;49.63;99311.81;685910;28;1236;-92
2023/12/22 00:07:21;;;;;;;4.73;2.00;;;;;;;10.38;49.77;99324.00;683251;28;1240;-92
2023/12/22 00:07:42;;;;;;;7.40;2.07;;;;;;;10.23;49.92;99296.97;688473;28;1297;-94
2023/12/22 00:08:03;;;;;;;7.95;2.03;;;;;;;10.30;50.11;99326.53;686064;28;1110;-93
2023/12/22 00:08:24;;;;;;;6.78;1.80;;;;;;;10.15;50.14;99286.44;680450;29;1086;-93
2023/12/22 00:08:44;;;;;;;4.70;1.80;;;;;;;10.24;50.24;99322.16;678007;29;1327;-93
2023/12/22 00:09:05;;;;;;;7.05;2.03;;;;;;;10.27;50.11;99311.75;680234;29;1277;-93
2023/12/22 00:09:26;;;;;;;7.00;2.00;;;;;;;10.14;49.94;99309.91;677677;29;1335;-93
2023/12/22 00:09:46;;;;;;;6.30;2.03;;;;;;;10.20;50.08;99319.50;683325;29;1306;-93
2023/12/22 00:10:09;;;;;;;2.92;1.70;;;;;;;10.10;50.34;99319.44;681393;29;1350;-94
2023/12/22 00:10:29;;;;;;;3.13;1.70;;;;;;;10.17;49.97;99303.81;680983;29;1292;-94
2023/12/22 00:10:50;;;;;;;4.20;1.92;;;;;;;10.15;50.03;99307.28;683395;29;1273;-93
2023/12/22 00:11:11;;;;;;;6.90;2.30;;;;;;;10.24;50.30;99316.06;686009;28;1304;-94
2023/12/22 00:11:32;;;;;;;10.07;2.58;;;;;;;10.21;50.18;99308.22;688637;28;1161;-93
2023/12/22 00:11:52;;;;;;;9.13;2.40;;;;;;;10.17;49.95;99314.25;683359;28;1125;-93
2023/12/22 00:12:13;;;;;;;8.65;2.20;;;;;;;10.22;49.86;99308.22;680545;29;1265;-94
2023/12/22 00:12:33;;;;;;;5.22;2.00;;;;;;;10.21;50.00;99305.59;680402;29;1300;-94
2023/12/22 00:12:54;;;;;;;5.00;1.90;;;;;;;10.30;49.81;99331.75;685638;28;1135;-94
2023/12/22 00:13:15;;;;;;;2.30;1.65;;;;;;;10.28;49.86;99328.28;686034;28;1228;-93
2023/12/22 00:13:36;;;;;;;4.00;1.70;;;;;;;10.23;49.92;99310.00;683560;29;1084;-94
2023/12/22 00:13:56;;;;;;;5.97;2.10;;;;;;;10.22;49.92;99313.44;686421;28;1154;-92
2023/12/22 00:14:17;;;;;;;7.30;2.20;;;;;;;10.22;49.79;99307.34;684910;28;1335;-93
2023/12/22 00:14:40;;;;;;;5.03;2.00;;;;;;;10.21;50.23;99324.69;686116;28;1337;-93
2023/12/22 00:15:04;;;;;;;5.43;2.05;;;;;;;10.18;49.84;99321.22;683568;29;1258;-92
2023/12/22 00:15:25;;;;;;;4.50;2.10;;;;;;;10.13;50.21;99334.22;686301;28;1379;-94
2023/12/22 00:15:45;;;;;;;6.10;2.20;;;;;;;10.05;50.20;99326.34;685793;28;1158;-93
2023/12/22 00:16:06;;;;;;;4.93;2.00;;;;;;;10.03;50.51;99320.25;685608;28;1163;-93
2023/12/22 00:16:27;;;;;;;4.73;1.90;;;;;;;10.04;50.34;99324.59;683520;28;1087;-92
2023/12/22 00:16:47;;;;;;;4.33;1.90;;;;;;;10.05;50.34;99326.34;685790;28;1266;-92
2023/12/22 00:17:08;;;;;;;5.93;2.30;;;;;;;10.11;50.20;99323.78;680532;29;1256;-94
2023/12/22 00:17:28;;;;;;;6.13;2.60;;;;;;;9.99;50.25;99310.66;680764;29;1172;-93
2023/12/22 00:17:52;;;;;;;7.72;3.00;;;;;;;10.09;50.42;99329.84;680808;29;1099;-91
2023/12/22 00:18:13;;;;;;;5.80;2.30;;;;;;;10.09;50.44;99333.31;682921;29;1324;-93
2023/12/22 00:18:34;;;;;;;6.18;2.25;;;;;;;10.02;50.07;99341.97;683514;29;1147;-94
2023/12/22 00:18:55;;;;;;;4.70;1.90;;;;;;;10.05;50.24;99341.09;683340;29;1110;-93
2023/12/22 00:19:16;;;;;;;7.50;2.20;;;;;;;10.09;50.37;99333.31;681587;29;1256;-94
2023/12/22 00:19:37;;;;;;;10.43;2.42;;;;;;;10.15;50.28;99328.16;678326;29;1238;-93
2023/12/22 00:20:01;;;;;;;7.90;2.57;;;;;;;10.07;50.17;99324.63;683415;28;1417;-93
2023/12/22 00:20:22;;;;;;;8.13;2.33;;;;;;;10.03;50.23;99332.41;680566;29;1258;-92
2023/12/22 00:20:43;;;;;;;6.63;2.03;;;;;;;10.14;50.09;99339.44;683421;28;1518;-93
2023/12/22 00:21:04;;;;;;;7.32;2.10;;;;;;;9.97;50.17;99315.00;682918;29;1122;-94
2023/12/22 00:21:24;;;;;;;7.40;2.20;;;;;;;10.07;50.25;99340.25;680659;29;1177;-93
2023/12/22 00:21:45;;;;;;;7.85;2.38;;;;;;;10.02;50.29;99328.94;680513;29;1316;-94
2023/12/22 00:22:06;;;;;;;6.30;2.10;;;;;;;9.99;50.28;99347.16;684989;28;1340;-94
2023/12/22 00:22:27;;;;;;;8.32;2.00;;;;;;;9.92;50.22;99332.31;689892;28;1209;-92
2023/12/22 00:22:47;;;;;;;8.90;2.00;;;;;;;9.99;50.04;99337.63;685705;29;1229;-92
2023/12/22 00:23:08;;;;;;;8.37;1.90;;;;;;;10.03;50.27;99328.09;688581;28;1122;-93
2023/12/22 00:23:29;;;;;;;5.93;2.20;;;;;;;10.03;50.19;99338.50;690690;28;1256;-93
2023/12/22 00:23:49;;;;;;;3.90;1.98;;;;;;;9.95;50.19;99314.13;686182;29;1196;-93
2023/12/22 00:24:10;;;;;;;4.27;2.00;;;;;;;9.97;50.37;99328.03;684069;29;1907;-92
2023/12/22 00:24:31;;;;;;;3.60;1.67;;;;;;;9.93;50.39;99327.13;691530;28;1127;-92
2023/12/22 00:24:51;;;;;;;4.25;1.80;;;;;;;9.83;50.62;99330.53;688244;28;1182;-92
2023/12/22 00:25:12;;;;;;;6.10;2.00;;;;;;;9.96;50.59;99344.53;689278;28;1180;-93
2023/12/22 00:25:33;;;;;;;5.30;1.90;;;;;;;9.91;50.80;99333.19;690656;28;1697;-93
2023/12/22 00:25:53;;;;;;;5.85;1.88;;;;;;;9.85;50.61;99313.19;686626;29;1208;-93
2023/12/22 00:26:15;;;;;;;6.90;1.90;;;;;;;9.95;50.61;99335.81;684338;29;1165;-93
2023/12/22 00:26:35;;;;;;;7.82;2.00;;;;;;;9.98;50.34;99340.19;690762;28;1567;-92
2023/12/22 00:26:56;;;;;;;7.32;2.00;;;;;;;9.94;50.42;99336.69;686234;28;1468;-93
2023/12/22 00:27:17;;;;;;;9.35;2.08;;;;;;;9.94;50.27;99323.66;683764;29;1262;-92
2023/12/22 00:27:37;;;;;;;9.98;2.20;;;;;;;9.85;50.36;99336.63;685022;29;1192;-92
2023/12/22 00:27:58;;;;;;;9.20;2.27;;;;;;;9.85;50.50;99327.06;685290;28;1415;-93
2023/12/22 00:28:19;;;;;;;6.70;2.35;;;;;;;9.85;50.56;99321.84;685038;29;1347;-93
2023/12/22 00:28:39;;;;;;;7.30;2.25;;;;;;;9.90;50.37;99336.66;688998;28;1235;-93
2023/12/22 00:29:00;;;;;;;7.18;2.10;;;;;;;9.82;50.48;99342.69;685893;29;1201;-93
2023/12/22 00:29:21;;;;;;;4.73;1.63;;;;;;;9.91;50.57;99343.63;683384;28;1090;-93
2023/12/22 00:29:41;;;;;;;4.00;1.98;;;;;;;9.95;50.48;99329.75;683605;29;1138;-91
2023/12/22 00:30:05;;;;;;;3.83;2.03;;;;;;;9.97;50.38;99328.88;685369;29;1637;-92
2023/12/22 00:30:29;;;;;;;4.68;2.00;;;;;;;9.99;50.38;99337.63;684447;29;1580;-92
2023/12/22 00:30:50;;;;;;;4.45;1.55;;;;;;;9.93;50.36;99336.66;681444;29;1534;-93
2023/12/22 00:31:12;;;;;;;4.93;1.60;;;;;;;9.95;50.26;99337.59;685020;28;1129;-93
2023/12/22 00:31:32;;;;;;;6.25;1.75;;;;;;;9.90;50.13;99354.91;688374;28;1175;-93
2023/12/22 00:31:53;;;;;;;9.20;2.00;;;;;;;9.87;50.50;99347.94;688197;28;1179;-92
2023/12/22 00:32:14;;;;;;;9.30;2.00;;;;;;;9.95;50.53;99374.06;689146;28;1429;-91
2023/12/22 00:32:35;;;;;;;7.70;1.85;;;;;;;9.78;50.57;99343.53;688427;28;1280;-92
2023/12/22 00:32:55;;;;;;;6.38;2.10;;;;;;;9.78;50.64;99343.53;688114;28;1247;-92
2023/12/22 00:33:16;;;;;;;7.00;2.10;;;;;;;9.86;50.53;99347.06;686489;28;1615;-93
2023/12/22 00:33:37;;;;;;;10.40;2.22;;;;;;;9.91;50.73;99354.91;684316;28;1146;-92
2023/12/22 00:33:57;;;;;;;9.70;2.08;;;;;;;9.88;50.29;99347.06;680466;28;1252;-92
2023/12/22 00:34:19;;;;;;;8.57;2.20;;;;;;;9.84;50.36;99340.94;680477;29;1217;-93
2023/12/22 00:34:40;;;;;;;4.90;2.10;;;;;;;9.83;50.51;99334.00;683807;28;1279;-93
2023/12/22 00:35:00;;;;;;;4.60;1.95;;;;;;;9.78;50.54;99337.44;683296;29;1257;-93
2023/12/22 00:35:21;;;;;;;4.50;1.80;;;;;;;9.89;50.54;99353.16;683392;29;1110;-93
2023/12/22 00:35:42;;;;;;;3.70;1.80;;;;;;;9.94;50.48;99343.66;683436;29;1203;-93
2023/12/22 00:36:05;;;;;;;2.72;1.75;;;;;;;9.97;50.34;99351.50;680951;29;1248;-92
2023/12/22 00:36:26;;;;;;;4.10;1.80;;;;;;;9.87;50.45;99364.44;681245;28;1294;-92
2023/12/22 00:36:47;;;;;;;4.38;1.65;;;;;;;9.89;50.40;99355.75;684648;28;1606;-93
2023/12/22 00:37:07;;;;;;;4.55;1.85;;;;;;;9.80;50.44;99362.66;683198;28;1166;-93
2023/12/22 00:37:28;;;;;;;7.10;1.97;;;;;;;9.71;50.56;99349.56;680753;29;1222;-91
2023/12/22 00:37:49;;;;;;;7.25;2.00;;;;;;;9.83;50.91;99357.44;683417;29;1274;-93
2023/12/22 00:38:12;;;;;;;6.50;1.90;;;;;;;9.80;50.72;99349.63;684591;28;1301;-94
2023/12/22 00:38:33;;;;;;;7.00;2.00;;;;;;;9.80;50.44;99349.63;682670;29;1224;-94
2023/12/22 00:38:54;;;;;;;7.97;2.38;;;;;;;9.79;50.85;99360.91;677775;29;1226;-95
2023/12/22 00:39:15;;;;;;;8.10;2.33;;;;;;;9.78;50.75;99350.47;683276;28;1399;-92
2023/12/22 00:39:35;;;;;;;6.60;2.30;;;;;;;9.74;50.84;99359.97;685953;28;1346;-93
2023/12/22 00:39:56;;;;;;;5.25;1.95;;;;;;;9.73;51.02;99355.63;683389;29;1119;-92
2023/12/22 00:40:17;;;;;;;5.53;2.10;;;;;;;9.85;50.84;99366.16;685673;28;1231;-93
2023/12/22 00:40:37;;;;;;;3.10;1.70;;;;;;;9.77;50.80;99365.22;680100;29;1214;-94
2023/12/22 00:40:58;;;;;;;3.42;1.60;;;;;;;9.85;50.61;99355.72;685817;28;1145;-93
2023/12/22 00:41:19;;;;;;;4.63;1.70;;;;;;;9.78;50.78;99342.66;684304;28;1372;-93
2023/12/22 00:41:39;;;;;;;6.00;1.77;;;;;;;9.69;51.12;99343.44;683408;28;1212;-93
2023/12/22 00:42:01;;;;;;;6.35;2.10;;;;;;;9.80;50.69;99353.94;685599;28;1139;-93
2023/12/22 00:42:22;;;;;;;8.52;2.28;;;;;;;9.71;51.03;99342.59;680663;29;1217;-93
2023/12/22 00:42:42;;;;;;;8.50;2.45;;;;;;;9.88;51.31;99352.28;682827;29;1317;-93
2023/12/22 00:43:03;;;;;;;7.97;2.00;;;;;;;9.75;50.79;99340.03;685348;28;1268;-93
2023/12/22 00:43:24;;;;;;;5.00;1.67;;;;;;;9.73;50.79;99342.63;683201;29;1122;-94
2023/12/22 00:43:48;;;;;;;5.38;1.70;;;;;;;9.89;50.73;99358.38;688963;28;1306;-92
2023/12/22 00:44:29;;;;;;;8.15;1.95;;;;;;;9.77;51.27;99356.53;679636;29;1919;-92
2023/12/22 00:44:59;;;;;;;3.58;1.60;;;;;;;9.84;50.59;99355.72;681260;29;1288;-92
2023/12/22 00:45:22;;;;;;;5.00;1.93;;;;;;;9.84;50.52;99345.31;680471;29;1226;-94
2023/12/22 00:45:43;;;;;;;4.10;1.60;;;;;;;9.91;50.72;99352.31;683274;29;1178;-93
2023/12/22 00:46:03;;;;;;;4.70;1.63;;;;;;;9.95;50.56;99355.81;681007;29;1251;-94
2023/12/22 00:46:24;;;;;;;4.40;1.60;;;;;;;9.87;50.39;99337.50;683093;29;1116;-93
2023/12/22 00:46:45;;;;;;;4.80;1.60;;;;;;;9.95;50.60;99355.81;680573;29;1328;-93
2023/12/22 00:47:06;;;;;;;5.00;1.70;;;;;;;9.84;50.37;99371.38;678494;29;1312;-94
2023/12/22 00:47:26;;;;;;;5.00;2.07;;;;;;;9.67;50.87;99347.75;688783;28;1244;-94
2023/12/22 00:47:47;;;;;;;6.10;2.30;;;;;;;9.75;50.87;99348.69;688531;28;1325;-92
2023/12/22 00:48:08;;;;;;;5.80;2.22;;;;;;;9.71;51.13;99331.31;687904;28;1164;-94
2023/12/22 00:48:28;;;;;;;5.13;1.70;;;;;;;9.83;51.08;99357.44;683139;28;1217;-93
2023/12/22 00:48:49;;;;;;;4.20;1.80;;;;;;;9.76;50.70;99370.44;680332;29;1273;-93
2023/12/22 00:49:09;;;;;;;4.28;1.80;;;;;;;9.73;50.90;99360.84;685928;28;1225;-92
2023/12/22 00:49:48;;;;;;;4.25;2.00;;;;;;;9.78;50.93;99364.38;680218;29;1355;-92
2023/12/22 00:50:28;;;;;;;5.13;1.60;;;;;;;9.82;51.00;99355.72;686030;28;681;-93
2023/12/22 00:51:07;;;;;;;7.88;1.55;;;;;;;9.86;50.59;99375.72;678161;29;1039;-94
2023/12/22 00:51:46;;;;;;;6.85;1.85;;;;;;;9.85;50.56;99358.31;683032;29;897;-93
2023/12/22 00:52:07;;;;;;;2.70;1.63;;;;;;;9.92;50.35;99355.78;686055;28;1182;-93
2023/12/22 00:52:28;;;;;;;2.95;1.75;;;;;;;9.85;50.42;99349.66;683290;29;1253;-93
2023/12/22 00:52:48;;;;;;;5.35;1.88;;;;;;;9.81;50.22;99364.38;685874;28;1423;-94
2023/12/22 00:53:09;;;;;;;5.60;2.00;;;;;;;9.83;50.63;99351.38;683071;28;1418;-93
2023/12/22 00:53:30;;;;;;;8.55;2.00;;;;;;;9.95;50.45;99358.44;680525;29;1218;-93
2023/12/22 00:53:51;;;;;;;6.97;2.00;;;;;;;9.94;50.52;99357.53;680634;29;1292;-91
2023/12/22 00:54:11;;;;;;;6.72;1.98;;;;;;;9.84;50.58;99376.56;686181;28;1160;-92
2023/12/22 00:54:32;;;;;;;3.20;1.77;;;;;;;9.89;50.44;99355.75;685966;28;1173;-93
2023/12/22 00:54:53;;;;;;;3.00;1.60;;;;;;;9.81;50.44;99373.91;683138;29;1313;-91
2023/12/22 00:55:13;;;;;;;6.22;1.73;;;;;;;9.85;50.54;99353.13;684743;28;1303;-94
2023/12/22 00:55:34;;;;;;;6.15;1.88;;;;;;;9.89;50.61;99355.75;685655;28;1157;-94
2023/12/22 00:55:55;;;;;;;4.18;1.73;;;;;;;9.86;50.72;99367.91;680817;29;1302;-93
2023/12/22 00:56:15;;;;;;;2.57;1.63;;;;;;;9.86;50.30;99365.31;681568;29;1248;-94
2023/12/22 00:56:36;;;;;;;6.73;1.60;;;;;;;9.94;50.32;99367.09;685900;28;1218;-94
2023/12/22 00:56:58;;;;;;;10.40;1.70;;;;;;;9.95;50.31;99366.25;685818;28;1424;-93
2023/12/22 00:57:21;;;;;;;9.40;1.67;;;;;;;10.00;50.43;99361.91;686009;28;1416;-94
2023/12/22 00:57:42;;;;;;;6.13;1.90;;;;;;;9.90;50.25;99344.47;685786;28;1308;-93
2023/12/22 00:58:03;;;;;;;3.95;2.10;;;;;;;9.90;50.37;99362.72;682903;29;1320;-94
2023/12/22 00:58:24;;;;;;;4.40;2.03;;;;;;;9.91;50.05;99369.66;680025;29;1333;-94
2023/12/22 00:58:44;;;;;;;5.32;2.05;;;;;;;9.83;50.11;99333.16;683188;29;1328;-93
2023/12/22 00:59:05;;;;;;;9.00;2.20;;;;;;;9.81;50.17;99353.97;680487;29;1324;-93
2023/12/22 00:59:26;;;;;;;10.80;2.30;;;;;;;9.80;50.29;99347.00;685424;28;1137;-94
2023/12/22 00:59:47;;;;;;;8.07;1.85;;;;;;;9.86;50.20;99347.06;685787;28;1126;-93
2023/12/22 01:00:11;;;;;;;4.50;1.60;;;;;;;9.79;50.07;99360.91;678019;29;1194;-93
2023/12/22 01:00:32;;;;;;;2.10;1.40;;;;;;;9.79;50.13;99345.28;677874;29;1432;-94
2023/12/22 01:00:53;;;;;;;2.33;1.60;;;;;;;9.78;50.21;99353.97;680541;29;1258;-93
2023/12/22 01:01:13;;;;;;;3.17;1.57;;;;;;;9.78;50.36;99347.84;683956;28;1186;-93
2023/12/22 01:01:34;;;;;;;4.13;1.73;;;;;;;9.78;50.54;99337.44;685805;28;1240;-94
2023/12/22 01:01:55;;;;;;;6.60;1.92;;;;;;;9.76;50.20;99350.44;677920;29;1331;-93
2023/12/22 01:02:17;;;;;;;8.75;2.13;;;;;;;9.75;50.34;99355.66;680327;29;1266;-93
2023/12/22 01:02:38;;;;;;;8.73;1.83;;;;;;;9.64;50.84;99359.03;683026;29;1255;-93
2023/12/22 01:02:58;;;;;;;6.15;1.83;;;;;;;9.59;50.91;99348.56;680502;29;1248;-93
2023/12/22 01:03:19;;;;;;;4.90;1.80;;;;;;;9.66;50.94;99353.84;685764;28;1142;-93
2023/12/22 01:03:40;;;;;;;4.93;1.90;;;;;;;9.63;50.98;99348.63;685911;28;1186;-93
2023/12/22 01:04:01;;;;;;;5.13;1.80;;;;;;;9.60;50.98;99344.25;683234;29;1194;-93
2023/12/22 01:04:21;;;;;;;10.48;2.00;;;;;;;9.67;50.87;99346.03;685674;28;1910;-94
2023/12/22 01:04:43;;;;;;;10.38;2.10;;;;;;;9.76;50.69;99350.44;687429;28;1125;-93
2023/12/22 01:05:05;;;;;;;10.50;2.28;;;;;;;9.75;50.53;99356.50;682994;29;1230;-92
2023/12/22 01:05:25;;;;;;;4.38;2.05;;;;;;;9.68;50.50;99339.09;682795;29;1382;-93
2023/12/22 01:05:46;;;;;;;5.00;2.00;;;;;;;9.72;50.51;99348.69;683093;29;1223;-93
2023/12/22 01:06:06;;;;;;;9.02;1.80;;;;;;;9.70;50.95;99360.81;682797;29;1596;-92
2023/12/22 01:06:27;;;;;;;10.17;1.90;;;;;;;9.69;50.62;99359.94;680687;29;1273;-93
2023/12/22 01:06:48;;;;;;;13.90;2.05;;;;;;;9.65;50.46;99339.06;685692;28;1174;-93
2023/12/22 01:07:09;;;;;;;9.70;2.00;;;;;;;9.60;50.51;99339.88;688215;28;1236;-93
2023/12/22 01:07:30;;;;;;;8.45;1.88;;;;;;;9.73;50.48;99350.44;683314;29;1341;-94
2023/12/22 01:07:51;;;;;;;4.00;1.80;;;;;;;9.74;50.49;99357.38;682677;29;1217;-93
2023/12/22 01:08:11;;;;;;;6.85;1.83;;;;;;;9.73;50.47;99355.63;681684;28;1395;-93
2023/12/22 01:08:32;;;;;;;10.13;2.13;;;;;;;9.73;50.26;99366.91;680566;29;1262;-93
2023/12/22 01:08:53;;;;;;;11.88;2.25;;;;;;;9.69;50.45;99365.16;680714;28;1267;-90
2023/12/22 01:09:14;;;;;;;11.13;2.35;;;;;;;9.56;50.56;99358.97;683040;28;1316;-93
2023/12/22 01:09:37;;;;;;;6.97;2.13;;;;;;;9.60;50.58;99360.72;682850;29;1332;-94
2023/12/22 01:10:01;;;;;;;7.45;1.92;;;;;;;9.56;50.49;99351.16;683332;29;1376;-94
2023/12/22 01:10:22;;;;;;;8.77;1.90;;;;;;;9.57;50.51;99352.91;685968;28;1320;-90
2023/12/22 01:10:42;;;;;;;7.60;1.63;;;;;;;9.53;50.77;99371.09;683244;28;1225;-93
2023/12/22 01:11:03;;;;;;;4.90;1.80;;;;;;;9.44;51.06;99353.63;685647;28;1130;-94
2023/12/22 01:11:24;;;;;;;7.32;2.13;;;;;;;9.60;51.07;99368.53;683028;29;1377;-94
2023/12/22 01:11:44;;;;;;;8.15;2.20;;;;;;;9.50;51.07;99361.50;680559;29;1284;-93
2023/12/22 01:12:06;;;;;;;6.80;1.97;;;;;;;9.58;50.83;99377.19;682678;29;1203;-93
2023/12/22 01:12:28;;;;;;;4.65;1.80;;;;;;;9.63;50.84;99393.75;685865;28;1197;-92
2023/12/22 01:12:49;;;;;;;4.70;1.80;;;;;;;9.56;51.05;99378.91;689853;28;1329;-93
2023/12/22 01:13:09;;;;;;;6.55;2.00;;;;;;;9.51;51.14;99376.25;682867;29;1361;-93
2023/12/22 01:13:30;;;;;;;9.07;2.42;;;;;;;9.60;51.25;99378.94;683149;29;1203;-92
2023/12/22 01:13:51;;;;;;;9.13;2.28;;;;;;;9.56;51.33;99381.53;683130;28;1219;-93
2023/12/22 01:14:15;;;;;;;11.00;2.03;;;;;;;9.64;51.22;99385.06;685732;28;1443;-92
2023/12/22 01:14:36;;;;;;;9.77;1.85;;;;;;;9.63;51.05;99382.47;685741;28;1244;-93
2023/12/22 01:14:57;;;;;;;7.63;1.88;;;;;;;9.68;50.98;99373.84;683287;29;1082;-93
2023/12/22 01:15:17;;;;;;;6.80;1.92;;;;;;;9.65;51.16;99372.94;685817;28;1188;-93
2023/12/22 01:15:38;;;;;;;6.90;1.90;;;;;;;9.60;50.90;99378.94;682975;29;1277;-93
2023/12/22 01:15:59;;;;;;;7.70;2.10;;;;;;;9.52;50.83;99367.59;683238;29;1299;-94
2023/12/22 01:16:22;;;;;;;4.30;1.63;;;;;;;9.67;50.69;99377.31;682937;29;1232;-93
2023/12/22 01:16:42;;;;;;;3.28;1.48;;;;;;;9.71;50.64;99383.41;678091;29;1187;-92
2023/12/22 01:17:03;;;;;;;8.30;1.53;;;;;;;9.64;50.69;99382.47;683104;29;1181;-92
2023/12/22 01:17:24;;;;;;;12.20;2.03;;;;;;;9.44;51.10;99388.38;685810;28;1298;-92
2023/12/22 01:17:45;;;;;;;13.60;2.17;;;;;;;9.52;51.11;99372.81;680250;29;1259;-93
2023/12/22 01:18:05;;;;;;;7.70;1.90;;;;;;;9.56;50.78;99395.44;680362;29;1287;-91
2023/12/22 01:18:29;;;;;;;6.70;1.70;;;;;;;9.59;51.01;99385.03;688333;28;1208;-92
2023/12/22 01:18:52;;;;;;;6.03;1.80;;;;;;;9.56;50.98;99358.97;686013;28;1251;-91
2023/12/22 01:19:13;;;;;;;6.32;2.05;;;;;;;9.58;51.12;99369.38;686263;28;1234;-92
2023/12/22 01:19:34;;;;;;;7.93;2.13;;;;;;;9.67;50.71;99379.03;683803;28;1080;-91
2023/12/22 01:19:54;;;;;;;7.53;2.00;;;;;;;9.74;50.79;99378.22;683362;29;1241;-93
2023/12/22 01:20:15;;;;;;;8.48;2.05;;;;;;;9.79;50.89;99370.44;685549;28;1262;-91
2023/12/22 01:20:36;;;;;;;10.90;2.28;;;;;;;9.80;50.42;99373.06;683417;29;1229;-92
2023/12/22 01:20:56;;;;;;;11.10;2.47;;;;;;;9.63;50.52;99377.25;683558;28;1208;-92
2023/12/22 01:21:17;;;;;;;8.63;2.15;;;;;;;9.57;50.69;99368.53;689078;28;1282;-91
2023/12/22 01:21:38;;;;;;;4.38;2.00;;;;;;;9.64;51.14;99371.19;685587;28;1228;-91
2023/12/22 01:21:59;;;;;;;4.13;1.70;;;;;;;9.68;50.93;99363.41;688859;28;1182;-92
2023/12/22 01:22:19;;;;;;;5.35;2.05;;;;;;;9.70;50.98;99382.53;685864;28;1317;-93
2023/12/22 01:22:40;;;;;;;5.03;2.17;;;;;;;9.75;50.38;99369.53;685265;28;1225;-93
2023/12/22 01:23:01;;;;;;;8.50;2.28;;;;;;;9.69;50.83;99369.47;680624;29;1283;-93
2023/12/22 01:23:21;;;;;;;7.78;2.25;;;;;;;9.77;50.57;99372.16;683043;29;1266;-93
2023/12/22 01:23:42;;;;;;;6.63;1.90;;;;;;;9.79;50.37;99367.84;685858;28;1128;-93
2023/12/22 01:24:03;;;;;;;3.88;1.83;;;;;;;9.73;50.21;99371.25;684336;29;1166;-92
2023/12/22 01:24:24;;;;;;;6.00;2.00;;;;;;;9.76;50.37;99355.66;683987;29;1958;-90
2023/12/22 01:24:45;;;;;;;8.73;2.20;;;;;;;9.78;50.39;99366.09;688616;28;1212;-92
2023/12/22 01:25:06;;;;;;;13.00;2.30;;;;;;;9.77;50.25;99351.31;685931;29;1809;-92
2023/12/22 01:25:26;;;;;;;11.23;2.25;;;;;;;9.76;50.37;99389.50;682996;28;1315;-91
2023/12/22 01:25:47;;;;;;;7.95;2.10;;;;;;;9.79;50.40;99381.75;681341;29;1592;-91
2023/12/22 01:26:08;;;;;;;5.80;1.83;;;;;;;9.64;50.48;99374.66;683356;28;1251;-91
2023/12/22 01:26:28;;;;;;;9.07;1.88;;;;;;;9.73;50.50;99386.91;685987;29;1262;-92
2023/12/22 01:26:49;;;;;;;12.50;2.30;;;;;;;9.69;50.64;99375.56;686058;29;1206;-92
2023/12/22 01:27:10;;;;;;;13.52;2.58;;;;;;;9.77;50.20;99413.84;689075;28;1655;-91
2023/12/22 01:27:31;;;;;;;9.65;2.22;;;;;;;9.74;50.45;99373.00;686274;28;1170;-93
2023/12/22 01:27:52;;;;;;;7.05;1.98;;;;;;;9.78;50.55;99385.22;688568;28;1227;-91
2023/12/22 01:28:12;;;;;;;8.23;1.85;;;;;;;9.70;50.30;99363.41;686888;28;1634;-92
2023/12/22 01:28:36;;;;;;;8.55;1.92;;;;;;;9.78;50.14;99359.16;688766;28;1277;-92
2023/12/22 01:28:56;;;;;;;6.70;2.05;;;;;;;9.82;50.39;99370.47;688434;28;1296;-92
2023/12/22 01:29:17;;;;;;;4.32;2.17;;;;;;;9.79;50.34;99365.22;686087;29;1698;-93
2023/12/22 01:29:38;;;;;;;6.40;2.20;;;;;;;9.76;50.29;99355.66;683343;29;1219;-93
2023/12/22 01:29:59;;;;;;;6.53;2.15;;;;;;;9.73;50.60;99381.69;685838;28;1181;-93
2023/12/22 01:30:19;;;;;;;6.15;2.00;;;;;;;9.64;50.75;99379.84;682857;28;1294;-92
2023/12/22 01:30:40;;;;;;;4.10;1.83;;;;;;;9.70;51.04;99363.41;685711;28;1235;-93
2023/12/22 01:31:01;;;;;;;4.10;1.83;;;;;;;9.76;50.50;99368.69;683083;29;1159;-92
2023/12/22 01:31:22;;;;;;;5.43;1.85;;;;;;;9.81;50.44;99366.09;685056;28;1219;-93
2023/12/22 01:31:42;;;;;;;5.55;2.28;;;;;;;9.77;50.39;99352.19;682903;29;1206;-93
2023/12/22 01:32:04;;;;;;;5.90;2.13;;;;;;;9.88;50.64;99378.31;683054;28;1253;-92
2023/12/22 01:32:25;;;;;;;5.80;2.20;;;;;;;9.88;50.24;99354.88;682904;28;1232;-93
2023/12/22 01:32:46;;;;;;;5.93;2.00;;;;;;;9.83;50.30;99346.19;680356;29;1241;-93
2023/12/22 01:33:07;;;;;;;7.18;2.17;;;;;;;9.87;50.30;99358.34;680413;29;1202;-92
2023/12/22 01:33:27;;;;;;;10.13;1.88;;;;;;;9.87;50.42;99368.78;685720;28;1066;-94
2023/12/22 01:33:50;;;;;;;9.63;1.90;;;;;;;9.87;50.60;99385.28;682259;29;1145;-92
2023/12/22 01:34:11;;;;;;;10.48;1.95;;;;;;;9.88;50.44;99375.72;680113;29;1282;-93
2023/12/22 01:34:32;;;;;;;8.10;2.30;;;;;;;9.90;50.62;99394.00;685913;28;1323;-94
2023/12/22 01:34:52;;;;;;;11.13;2.10;;;;;;;9.90;50.17;99383.56;682899;29;1266;-91
2023/12/22 01:35:14;;;;;;;9.80;1.90;;;;;;;9.92;50.52;99382.72;681272;28;1214;-92
2023/12/22 01:35:34;;;;;;;6.97;1.58;;;;;;;9.85;50.36;99381.78;688121;28;1329;-93
2023/12/22 01:35:57;;;;;;;3.55;1.60;;;;;;;9.99;50.32;99383.63;680524;28;1302;-92
2023/12/22 01:36:18;;;;;;;6.40;1.90;;;;;;;9.99;50.42;99381.03;682539;28;1258;-92
2023/12/22 01:36:39;;;;;;;9.32;1.88;;;;;;;10.02;50.48;99386.28;688294;28;1152;-93
2023/12/22 01:36:59;;;;;;;8.52;1.73;;;;;;;10.07;50.31;99383.72;681401;28;1796;-92
2023/12/22 01:37:20;;;;;;;7.60;1.70;;;;;;;10.07;50.37;99373.28;682651;28;1394;-92
2023/12/22 01:37:40;;;;;;;5.50;1.85;;;;;;;10.09;50.45;99368.94;680800;29;1395;-94
2023/12/22 01:38:01;;;;;;;6.55;1.92;;;;;;;10.14;50.44;99373.31;687982;28;1212;-93
2023/12/22 01:38:22;;;;;;;8.30;2.07;;;;;;;10.10;50.19;99368.09;681052;28;1337;-93
2023/12/22 01:38:42;;;;;;;8.35;2.30;;;;;;;10.05;50.23;99360.22;682675;29;1239;-92
2023/12/22 01:39:04;;;;;;;6.50;2.38;;;;;;;10.07;50.19;99376.75;682906;28;1594;-93
2023/12/22 01:39:25;;;;;;;3.58;2.00;;;;;;;10.13;50.24;99361.16;680265;29;1238;-93
2023/12/22 01:39:45;;;;;;;4.13;1.90;;;;;;;10.11;50.32;99378.53;685612;28;1221;-92
2023/12/22 01:40:07;;;;;;;7.10;2.08;;;;;;;10.19;50.18;99378.56;680265;29;1319;-91
2023/12/22 01:40:27;;;;;;;6.57;2.03;;;;;;;10.20;49.91;99387.28;677846;29;1284;-94
2023/12/22 01:40:48;;;;;;;5.50;1.70;;;;;;;10.33;50.00;99391.72;677960;29;1158;-93
2023/12/22 01:41:09;;;;;;;4.72;1.52;;;;;;;10.26;50.13;99392.56;677463;29;1353;-91
2023/12/22 01:41:29;;;;;;;5.60;1.83;;;;;;;10.28;49.97;99380.41;680428;29;1281;-94
2023/12/22 01:41:50;;;;;;;3.80;1.80;;;;;;;10.15;50.02;99375.06;677797;29;1260;-93
2023/12/22 01:42:11;;;;;;;3.23;1.60;;;;;;;10.17;49.97;99379.41;682850;29;1320;-93
2023/12/22 01:42:31;;;;;;;4.70;1.60;;;;;;;10.17;50.21;99374.19;685874;28;1299;-93
2023/12/22 01:42:52;;;;;;;9.50;1.92;;;;;;;10.17;50.00;99397.66;682713;29;1650;-93
2023/12/22 01:43:21;;;;;;;9.07;2.00;;;;;;;10.18;50.29;99374.22;685602;28;1174;-93
2023/12/22 01:43:42;;;;;;;8.55;1.95;;;;;;;10.24;50.28;99389.06;688381;28;1296;-92